createdAt,value
2017-11-29T00:01:48.207Z,97907.08
2017-11-29T00:04:16.482Z,97905.33
2017-11-29T00:06:44.773Z,97904.66
2017-11-29T00:09:13.085Z,97902.97
2017-11-29T00:11:41.332Z,97894.27
2017-11-29T00:14:09.624Z,97890.28
2017-11-29T00:16:37.880Z,97886.16
2017-11-29T00:19:06.158Z,97884.16
2017-11-29T00:21:34.428Z,97890.19
2017-11-29T00:24:02.733Z,97899.68
2017-11-29T00:26:30.985Z,97891.20
2017-11-29T00:28:59.290Z,97897.36
2017-11-29T00:31:27.540Z,97901.44
2017-11-29T00:33:55.820Z,97901.84
2017-11-29T00:36:24.113Z,97893.80
2017-11-29T00:38:52.447Z,97901.09
2017-11-29T00:41:20.719Z,97892.23
2017-11-29T00:43:48.961Z,97886.46
2017-11-29T00:46:17.314Z,97888.70
2017-11-29T00:48:45.545Z,97887.11
2017-11-29T00:51:13.795Z,97886.70
2017-11-29T00:53:42.120Z,97890.80
2017-11-29T00:56:10.721Z,97899.32
2017-11-29T00:58:38.966Z,97891.70
2017-11-29T01:01:07.282Z,97887.48
2017-11-29T01:03:35.541Z,97891.48
2017-11-29T01:06:03.825Z,97897.17
2017-11-29T01:08:32.087Z,97886.41
2017-11-29T01:11:01.017Z,97887.35
2017-11-29T01:13:29.282Z,97890.25
2017-11-29T01:15:57.567Z,97886.80
2017-11-29T01:18:25.848Z,97893.11
2017-11-29T01:20:54.124Z,97896.83
2017-11-29T01:23:22.412Z,97876.07
2017-11-29T01:25:50.766Z,97888.68
2017-11-29T01:28:19.020Z,97886.22
2017-11-29T01:30:47.293Z,97880.70
2017-11-29T01:33:15.588Z,97882.66
2017-11-29T01:35:43.987Z,97878.19
2017-11-29T01:38:12.241Z,97887.40
2017-11-29T01:40:40.496Z,97881.89
2017-11-29T01:43:08.774Z,97880.16
2017-11-29T01:45:37.045Z,97880.58
2017-11-29T01:48:05.300Z,97878.34
2017-11-29T01:50:33.552Z,97879.36
2017-11-29T01:53:01.830Z,97874.77
2017-11-29T01:55:30.121Z,97879.16
2017-11-29T01:57:58.398Z,97874.31
2017-11-29T02:00:26.728Z,97851.08
2017-11-29T02:02:54.986Z,97874.19
2017-11-29T02:05:23.258Z,97869.37
2017-11-29T02:07:51.513Z,97852.47
2017-11-29T02:10:19.788Z,97860.63
2017-11-29T02:12:48.050Z,97861.94
2017-11-29T02:15:16.357Z,97858.41
2017-11-29T02:17:44.601Z,97854.33
2017-11-29T02:20:12.857Z,97847.23
2017-11-29T02:22:41.141Z,97847.64
2017-11-29T02:25:09.397Z,97839.75
2017-11-29T02:27:37.692Z,97845.78
2017-11-29T02:30:05.950Z,97840.94
2017-11-29T02:32:34.242Z,97838.86
2017-11-29T02:35:02.534Z,97841.75
2017-11-29T02:37:30.831Z,97833.59
2017-11-29T02:40:10.861Z,97838.98
2017-11-29T02:42:40.604Z,97842.54
2017-11-29T02:45:10.612Z,97844.77
2017-11-29T02:47:38.901Z,97826.65
2017-11-29T02:50:07.196Z,97837.27
2017-11-29T02:52:35.455Z,97836.22
2017-11-29T02:55:03.732Z,97834.65
2017-11-29T02:57:31.980Z,97834.91
2017-11-29T03:00:00.285Z,97829.41
2017-11-29T03:02:28.544Z,97831.39
2017-11-29T03:04:56.847Z,97830.45
2017-11-29T03:07:25.109Z,97825.70
2017-11-29T03:09:53.413Z,97828.05
2017-11-29T03:12:21.671Z,97822.03
2017-11-29T03:14:49.958Z,97821.13
2017-11-29T03:17:18.209Z,97827.70
2017-11-29T03:19:46.502Z,97823.64
2017-11-29T03:22:14.761Z,97821.02
2017-11-29T03:24:43.009Z,97817.23
2017-11-29T03:27:11.296Z,97825.75
2017-11-29T03:29:39.559Z,97822.70
2017-11-29T03:32:07.853Z,97818.66
2017-11-29T03:34:36.106Z,97822.32
2017-11-29T03:37:05.957Z,97806.59
2017-11-29T03:39:34.221Z,97813.31
2017-11-29T03:42:02.488Z,97818.38
2017-11-29T03:44:30.766Z,97807.48
2017-11-29T03:46:59.060Z,97807.38
2017-11-29T03:49:27.316Z,97817.06
2017-11-29T03:51:55.606Z,97809.49
2017-11-29T03:54:23.913Z,97807.51
2017-11-29T03:56:52.152Z,97815.11
2017-11-29T03:59:20.452Z,97807.01
2017-11-29T04:01:48.744Z,97809.61
2017-11-29T04:04:17.021Z,97817.31
2017-11-29T04:06:45.282Z,97725.89
2017-11-29T04:09:13.558Z,97812.64
2017-11-29T04:11:41.802Z,97815.38
2017-11-29T04:14:10.110Z,97813.95
2017-11-29T04:16:38.352Z,97817.48
2017-11-29T04:19:06.681Z,97815.48
2017-11-29T04:21:34.963Z,97805.28
2017-11-29T04:24:03.262Z,97821.20
2017-11-29T04:26:31.563Z,97823.20
2017-11-29T04:28:59.827Z,97819.54
2017-11-29T04:31:28.128Z,97815.98
2017-11-29T04:33:56.392Z,97813.99
2017-11-29T04:36:24.702Z,97818.89
2017-11-29T04:38:52.937Z,97824.36
2017-11-29T04:41:21.254Z,97821.61
2017-11-29T04:43:49.514Z,97816.39
2017-11-29T04:46:17.778Z,97817.19
2017-11-29T04:48:46.044Z,97817.03
2017-11-29T04:51:14.365Z,97819.55
2017-11-29T04:53:42.620Z,97810.89
2017-11-29T04:56:11.105Z,97807.34
2017-11-29T04:58:39.384Z,97810.89
2017-11-29T05:01:07.665Z,97804.03
2017-11-29T05:03:35.936Z,97810.89
2017-11-29T05:06:04.980Z,97801.96
2017-11-29T05:08:33.304Z,97801.72
2017-11-29T05:11:01.547Z,97807.10
2017-11-29T05:13:29.886Z,97810.64
2017-11-29T05:15:58.138Z,97808.78
2017-11-29T05:18:26.411Z,97800.73
2017-11-29T05:20:54.729Z,97804.14
2017-11-29T05:23:23.025Z,97804.84
2017-11-29T05:25:51.284Z,97806.27
2017-11-29T05:28:19.586Z,97808.94
2017-11-29T05:30:47.817Z,97804.97
2017-11-29T05:33:16.069Z,97807.10
2017-11-29T05:35:44.354Z,97811.02
2017-11-29T05:38:12.609Z,97809.55
2017-11-29T05:40:40.896Z,97811.89
2017-11-29T05:43:09.169Z,97808.11
2017-11-29T05:45:37.447Z,97808.98
2017-11-29T05:48:05.713Z,97808.47
2017-11-29T05:50:34.002Z,97808.61
2017-11-29T05:53:02.250Z,97815.71
2017-11-29T05:55:30.551Z,97820.81
2017-11-29T05:57:58.826Z,97819.36
2017-11-29T06:00:27.116Z,97824.71
2017-11-29T06:02:55.388Z,97819.09
2017-11-29T06:05:23.680Z,97824.09
2017-11-29T06:07:51.955Z,97825.78
2017-11-29T06:10:20.224Z,97825.91
2017-11-29T06:12:48.505Z,97821.75
2017-11-29T06:15:16.768Z,97822.14
2017-11-29T06:17:45.111Z,97824.11
2017-11-29T06:20:13.344Z,97825.72
2017-11-29T06:22:41.633Z,97826.09
2017-11-29T06:25:09.912Z,97825.30
2017-11-29T06:27:38.187Z,97828.81
2017-11-29T06:30:06.451Z,97813.20
2017-11-29T06:32:34.718Z,97816.98
2017-11-29T06:35:03.012Z,97820.53
2017-11-29T06:37:31.266Z,97820.53
2017-11-29T06:39:59.569Z,97822.25
2017-11-29T06:42:27.817Z,97823.06
2017-11-29T06:44:56.122Z,97814.04
2017-11-29T06:47:24.388Z,97818.38
2017-11-29T06:49:52.700Z,97829.92
2017-11-29T06:52:21.455Z,97828.98
2017-11-29T06:54:49.755Z,97838.42
2017-11-29T06:57:18.033Z,97841.69
2017-11-29T06:59:46.339Z,97842.73
2017-11-29T07:02:14.668Z,97846.37
2017-11-29T07:04:42.925Z,97848.05
2017-11-29T07:07:11.213Z,97848.95
2017-11-29T07:09:39.588Z,97855.93
2017-11-29T07:12:07.866Z,97861.09
2017-11-29T07:14:36.687Z,97845.48
2017-11-29T07:17:04.984Z,97874.82
2017-11-29T07:19:33.269Z,97870.39
2017-11-29T07:22:01.557Z,97869.48
2017-11-29T07:24:29.857Z,97872.73
2017-11-29T07:26:58.112Z,97873.63
2017-11-29T07:29:26.418Z,97875.08
2017-11-29T07:31:54.905Z,97877.98
2017-11-29T07:34:23.157Z,97878.70
2017-11-29T07:36:51.441Z,97873.86
2017-11-29T07:39:19.733Z,97882.66
2017-11-29T07:41:48.074Z,97864.68
2017-11-29T07:44:16.386Z,97874.14
2017-11-29T07:46:44.653Z,97874.41
2017-11-29T07:49:12.913Z,97875.08
2017-11-29T07:51:41.198Z,97881.00
2017-11-29T07:54:10.216Z,97886.09
2017-11-29T07:56:38.540Z,97878.74
2017-11-29T07:59:06.826Z,97892.14
2017-11-29T08:01:36.005Z,97894.49
2017-11-29T08:04:05.109Z,97895.92
2017-11-29T08:06:33.392Z,97903.02
2017-11-29T08:09:02.550Z,97895.27
2017-11-29T08:11:30.816Z,97883.22
2017-11-29T08:13:59.172Z,97885.33
2017-11-29T08:16:27.405Z,97888.61
2017-11-29T08:18:55.706Z,97890.56
2017-11-29T08:21:23.965Z,97885.34
2017-11-29T08:23:52.259Z,97903.41
2017-11-29T08:26:20.565Z,97879.95
2017-11-29T08:28:48.846Z,97896.63
2017-11-29T08:31:17.111Z,97895.31
2017-11-29T08:33:45.402Z,97903.16
2017-11-29T08:36:13.661Z,97890.31
2017-11-29T08:38:41.960Z,97904.08
2017-11-29T08:41:10.247Z,97908.42
2017-11-29T08:43:38.537Z,97890.45
2017-11-29T08:46:07.686Z,97909.73
2017-11-29T08:48:36.045Z,97908.94
2017-11-29T08:51:04.999Z,97908.39
2017-11-29T08:53:33.257Z,97901.73
2017-11-29T08:56:01.526Z,97910.38
2017-11-29T08:58:29.798Z,97912.36
2017-11-29T09:00:58.065Z,97917.34
2017-11-29T09:03:26.352Z,97913.03
2017-11-29T09:05:54.676Z,97900.16
2017-11-29T09:08:22.952Z,97921.01
2017-11-29T09:10:51.250Z,97919.72
2017-11-29T09:13:19.510Z,97922.59
2017-11-29T09:15:48.475Z,97920.48
2017-11-29T09:18:16.765Z,97927.44
2017-11-29T09:20:45.067Z,97926.13
2017-11-29T09:23:13.312Z,97934.51
2017-11-29T09:25:41.596Z,97934.36
2017-11-29T09:28:09.873Z,97933.03
2017-11-29T09:30:38.237Z,97926.39
2017-11-29T09:33:06.521Z,97929.53
2017-11-29T09:35:34.848Z,97924.28
2017-11-29T09:38:03.119Z,97926.91
2017-11-29T09:40:31.450Z,97913.00
2017-11-29T09:42:59.754Z,97929.27
2017-11-29T09:45:28.044Z,97937.15
2017-11-29T09:47:56.313Z,97927.32
2017-11-29T09:50:24.603Z,97920.35
2017-11-29T09:52:52.902Z,97918.26
2017-11-29T09:55:21.206Z,97926.52
2017-11-29T09:57:49.525Z,97919.55
2017-11-29T10:00:17.830Z,97928.33
2017-11-29T10:02:46.206Z,97922.03
2017-11-29T10:05:14.482Z,97919.42
2017-11-29T10:07:42.796Z,97924.48
2017-11-29T10:10:11.094Z,97919.13
2017-11-29T10:12:39.385Z,97921.24
2017-11-29T10:15:07.632Z,97920.87
2017-11-29T10:17:35.898Z,97918.51
2017-11-29T10:20:05.254Z,97920.59
2017-11-29T10:22:33.567Z,97922.97
2017-11-29T10:25:01.871Z,97920.74
2017-11-29T10:27:30.137Z,97925.72
2017-11-29T10:29:58.424Z,97915.61
2017-11-29T10:32:26.722Z,97914.05
2017-11-29T10:34:55.000Z,97902.89
2017-11-29T10:37:23.261Z,97916.83
2017-11-29T10:39:51.537Z,97913.15
2017-11-29T10:42:19.820Z,97909.48
2017-11-29T10:44:48.066Z,97906.31
2017-11-29T10:47:16.519Z,97909.09
2017-11-29T10:49:44.765Z,97904.61
2017-11-29T10:52:13.048Z,97910.78
2017-11-29T10:54:41.342Z,97905.41
2017-11-29T10:57:09.618Z,97909.86
2017-11-29T10:59:37.913Z,97905.81
2017-11-29T11:02:06.200Z,97913.00
2017-11-29T11:04:34.466Z,97890.30
2017-11-29T11:07:03.054Z,97912.60
2017-11-29T11:09:31.399Z,97916.41
2017-11-29T11:11:59.880Z,97913.13
2017-11-29T11:14:28.225Z,97921.00
2017-11-29T11:16:56.480Z,97912.22
2017-11-29T11:19:24.797Z,97926.77
2017-11-29T11:21:53.060Z,97931.66
2017-11-29T11:24:21.333Z,97934.75
2017-11-29T11:26:49.578Z,97928.28
2017-11-29T11:29:17.852Z,97922.95
2017-11-29T11:31:46.119Z,97910.52
2017-11-29T11:34:14.502Z,97915.75
2017-11-29T11:36:42.784Z,97912.95
2017-11-29T11:39:11.265Z,97912.73
2017-11-29T11:41:40.459Z,97915.09
2017-11-29T11:44:08.709Z,97920.19
2017-11-29T11:46:36.973Z,97918.19
2017-11-29T11:49:05.316Z,97913.34
2017-11-29T11:51:33.562Z,97915.46
2017-11-29T11:54:02.002Z,97916.67
2017-11-29T11:56:30.240Z,97911.98
2017-11-29T11:58:58.703Z,97907.77
2017-11-29T12:01:27.003Z,97901.47
2017-11-29T12:03:55.276Z,97894.75
2017-11-29T12:06:23.577Z,97901.84
2017-11-29T12:08:52.738Z,97912.50
2017-11-29T12:11:21.044Z,97906.47
2017-11-29T12:13:49.313Z,97900.03
2017-11-29T12:16:17.656Z,97898.84
2017-11-29T12:18:45.961Z,97904.35
2017-11-29T12:21:14.235Z,97906.98
2017-11-29T12:23:42.548Z,97901.19
2017-11-29T12:26:10.863Z,97910.49
2017-11-29T12:28:39.129Z,97913.92
2017-11-29T12:31:07.488Z,97908.38
2017-11-29T12:33:35.767Z,97907.06
2017-11-29T12:36:04.021Z,97908.27
2017-11-29T12:38:32.600Z,97906.39
2017-11-29T12:41:00.843Z,97887.64
2017-11-29T12:43:29.158Z,97898.16
2017-11-29T12:45:57.401Z,97900.02
2017-11-29T12:48:37.622Z,97895.94
2017-11-29T12:51:13.819Z,97897.61
2017-11-29T12:53:42.092Z,97900.12
2017-11-29T12:56:10.369Z,97889.78
2017-11-29T12:58:38.655Z,97895.95
2017-11-29T13:01:06.967Z,97901.84
2017-11-29T13:03:35.291Z,97889.61
2017-11-29T13:06:03.533Z,97892.08
2017-11-29T13:08:32.770Z,97885.52
2017-11-29T13:11:01.043Z,97886.95
2017-11-29T13:13:30.261Z,97896.25
2017-11-29T13:15:59.545Z,97901.96
2017-11-29T13:18:27.853Z,97899.55
2017-11-29T13:20:56.149Z,97896.13
2017-11-29T13:23:24.405Z,97894.59
2017-11-29T13:25:52.730Z,97902.59
2017-11-29T13:28:21.126Z,97904.45
2017-11-29T13:30:49.401Z,97865.23
2017-11-29T13:33:17.672Z,97897.02
2017-11-29T13:35:45.964Z,97898.70
2017-11-29T13:38:14.236Z,97890.45
2017-11-29T13:40:42.528Z,97896.87
2017-11-29T13:43:10.862Z,97890.98
2017-11-29T13:45:40.117Z,97892.40
2017-11-29T13:48:08.445Z,97888.61
2017-11-29T13:50:36.820Z,97890.03
2017-11-29T13:53:05.195Z,97891.09
2017-11-29T13:55:33.458Z,97892.42
2017-11-29T13:58:01.760Z,97887.70
2017-11-29T14:00:30.059Z,97892.53
2017-11-29T14:02:58.320Z,97891.50
2017-11-29T14:05:26.654Z,97879.55
2017-11-29T14:07:55.234Z,97896.63
2017-11-29T14:10:23.529Z,97888.20
2017-11-29T14:12:51.812Z,97900.14
2017-11-29T14:15:20.136Z,97883.61
2017-11-29T14:17:48.428Z,97884.65
2017-11-29T14:20:16.748Z,97893.56
2017-11-29T14:22:44.984Z,97888.20
2017-11-29T14:25:13.273Z,97885.20
2017-11-29T14:27:41.549Z,97880.86
2017-11-29T14:30:09.876Z,97869.59
2017-11-29T14:32:38.156Z,97870.37
2017-11-29T14:35:06.421Z,97885.33
2017-11-29T14:37:34.659Z,97889.14
2017-11-29T14:40:02.985Z,97892.01
2017-11-29T14:42:31.304Z,97888.47
2017-11-29T14:44:59.563Z,97894.77
2017-11-29T14:47:27.882Z,97890.58
2017-11-29T14:49:56.177Z,97876.55
2017-11-29T14:52:24.454Z,97878.36
2017-11-29T14:54:52.726Z,97890.58
2017-11-29T14:57:21.093Z,97889.52
2017-11-29T14:59:49.372Z,97894.27
2017-11-29T15:02:17.658Z,97889.14
2017-11-29T15:04:45.997Z,97890.17
2017-11-29T15:07:14.307Z,97891.09
2017-11-29T15:09:42.564Z,97891.49
2017-11-29T15:12:10.825Z,97889.13
2017-11-29T15:14:39.113Z,97872.98
2017-11-29T15:17:08.281Z,97884.92
2017-11-29T15:19:36.597Z,97890.30
2017-11-29T15:22:04.851Z,97883.36
2017-11-29T15:24:33.149Z,97878.38
2017-11-29T15:27:01.417Z,97872.06
2017-11-29T15:29:30.622Z,97882.55
2017-11-29T15:31:58.889Z,97881.77
2017-11-29T15:34:27.191Z,97886.38
2017-11-29T15:36:55.478Z,97881.89
2017-11-29T15:39:23.756Z,97877.95
2017-11-29T15:41:52.092Z,97871.77
2017-11-29T15:44:20.397Z,97877.66
2017-11-29T15:46:48.704Z,97867.67
2017-11-29T15:49:16.996Z,97872.12
2017-11-29T15:51:45.260Z,97885.63
2017-11-29T15:54:13.537Z,97884.22
2017-11-29T15:56:42.524Z,97874.41
2017-11-29T15:59:10.861Z,97886.21
2017-11-29T16:01:39.191Z,97887.23
2017-11-29T16:04:07.533Z,97889.58
2017-11-29T16:06:35.827Z,97879.20
2017-11-29T16:09:04.201Z,97899.53
2017-11-29T16:11:32.479Z,97897.84
2017-11-29T16:14:00.816Z,97904.84
2017-11-29T16:16:29.537Z,97903.11
2017-11-29T16:18:58.417Z,97903.48
2017-11-29T16:21:26.696Z,97903.25
2017-11-29T16:23:55.062Z,97901.92
2017-11-29T16:26:23.568Z,97900.80
2017-11-29T16:28:51.897Z,97889.80
2017-11-29T16:31:20.290Z,97898.33
2017-11-29T16:33:48.614Z,97908.95
2017-11-29T16:36:16.958Z,97905.97
2017-11-29T16:38:45.249Z,97888.75
2017-11-29T16:41:13.601Z,97903.16
2017-11-29T16:43:42.776Z,97893.07
2017-11-29T16:46:11.575Z,97921.78
2017-11-29T16:48:39.843Z,97909.17
2017-11-29T16:51:08.137Z,97896.70
2017-11-29T16:53:36.454Z,97911.59
2017-11-29T16:56:04.706Z,97906.07
2017-11-29T16:58:33.006Z,97907.20
2017-11-29T17:01:01.261Z,97908.09
2017-11-29T17:03:29.569Z,97906.61
2017-11-29T17:05:57.827Z,97891.11
2017-11-29T17:08:26.161Z,97894.02
2017-11-29T17:10:54.471Z,97901.82
2017-11-29T17:13:22.804Z,97909.13
2017-11-29T17:15:51.125Z,97907.54
2017-11-29T17:18:20.764Z,97905.19
2017-11-29T17:20:49.026Z,97911.33
2017-11-29T17:23:17.293Z,97913.93
2017-11-29T17:25:45.558Z,97907.73
2017-11-29T17:28:14.137Z,97920.50
2017-11-29T17:30:43.600Z,97914.22
2017-11-29T17:33:11.859Z,97912.92
2017-11-29T17:35:40.152Z,97908.91
2017-11-29T17:38:08.432Z,97903.05
2017-11-29T17:40:36.735Z,97906.50
2017-11-29T17:43:05.326Z,97890.55
2017-11-29T17:45:33.577Z,97912.24
2017-11-29T17:48:01.878Z,97921.37
2017-11-29T17:50:30.139Z,97916.34
2017-11-29T17:52:58.424Z,97907.03
2017-11-29T17:55:26.677Z,97922.38
2017-11-29T17:57:54.991Z,97919.22
2017-11-29T18:00:23.329Z,97890.97
2017-11-29T18:02:51.637Z,97923.69
2017-11-29T18:05:19.994Z,97929.74
2017-11-29T18:07:48.314Z,97924.29
2017-11-29T18:10:16.633Z,97935.83
2017-11-29T18:12:44.924Z,97930.51
2017-11-29T18:15:13.240Z,97931.34
2017-11-29T18:17:41.537Z,97934.63
2017-11-29T18:20:09.874Z,97932.92
2017-11-29T18:22:38.154Z,97932.34
2017-11-29T18:25:06.472Z,97934.56
2017-11-29T18:27:34.931Z,97910.28
2017-11-29T18:30:03.223Z,97928.67
2017-11-29T18:32:31.566Z,97929.64
2017-11-29T18:35:00.760Z,97928.79
2017-11-29T18:37:29.858Z,97931.41
2017-11-29T18:39:58.201Z,97943.07
2017-11-29T18:42:26.564Z,97943.19
2017-11-29T18:44:54.793Z,97924.33
2017-11-29T18:47:23.215Z,97925.88
2017-11-29T18:49:51.571Z,97941.92
2017-11-29T18:52:20.304Z,97936.27
2017-11-29T18:54:48.636Z,97939.23
2017-11-29T18:57:16.902Z,97944.33
2017-11-29T18:59:45.209Z,97943.13
2017-11-29T19:02:13.457Z,97939.16
2017-11-29T19:04:41.769Z,97939.43
2017-11-29T19:07:10.016Z,97933.69
2017-11-29T19:09:38.368Z,97935.16
2017-11-29T19:12:06.648Z,97929.14
2017-11-29T19:14:35.959Z,97921.62
2017-11-29T19:17:04.347Z,97909.05
2017-11-29T19:19:32.689Z,97908.67
2017-11-29T19:22:00.980Z,97933.77
2017-11-29T19:24:29.345Z,97929.56
2017-11-29T19:26:57.968Z,97940.69
2017-11-29T19:29:26.282Z,97940.84
2017-11-29T19:31:54.612Z,97935.59
2017-11-29T19:34:22.875Z,97942.08
2017-11-29T19:36:51.161Z,97932.98
2017-11-29T19:39:19.475Z,97940.47
2017-11-29T19:41:47.760Z,97936.51
2017-11-29T19:44:16.045Z,97935.81
2017-11-29T19:46:44.375Z,97940.92
2017-11-29T19:49:12.697Z,97936.42
2017-11-29T19:51:41.041Z,97942.10
2017-11-29T19:54:09.401Z,97939.61
2017-11-29T19:56:37.684Z,97940.55
2017-11-29T19:59:05.973Z,97935.83
2017-11-29T20:01:34.237Z,97933.22
2017-11-29T20:04:02.545Z,97937.37
2017-11-29T20:06:30.794Z,97935.28
2017-11-29T20:08:59.164Z,97933.80
2017-11-29T20:11:27.420Z,97901.09
2017-11-29T20:13:55.720Z,97936.98
2017-11-29T20:16:24.130Z,97935.66
2017-11-29T20:18:52.454Z,97922.69
2017-11-29T20:21:20.748Z,97930.09
2017-11-29T20:23:49.041Z,97914.59
2017-11-29T20:26:17.333Z,97931.54
2017-11-29T20:28:45.605Z,97930.84
2017-11-29T20:31:13.950Z,97932.23
2017-11-29T20:33:42.208Z,97933.69
2017-11-29T20:36:10.500Z,97936.78
2017-11-29T20:38:38.772Z,97937.83
2017-11-29T20:41:07.150Z,97940.63
2017-11-29T20:43:35.429Z,97926.37
2017-11-29T20:46:03.696Z,97932.43
2017-11-29T20:48:31.978Z,97935.46
2017-11-29T20:51:00.370Z,97930.72
2017-11-29T20:53:28.718Z,97926.69
2017-11-29T20:55:56.995Z,97932.33
2017-11-29T20:58:25.294Z,97931.48
2017-11-29T21:00:53.556Z,97926.91
2017-11-29T21:03:22.191Z,97930.19
2017-11-29T21:05:50.484Z,97920.92
2017-11-29T21:08:18.792Z,97927.48
2017-11-29T21:10:47.059Z,97930.45
2017-11-29T21:13:15.422Z,97926.38
2017-11-29T21:15:43.709Z,97928.28
2017-11-29T21:18:12.001Z,97921.57
2017-11-29T21:20:40.266Z,97920.64
2017-11-29T21:23:08.599Z,97923.13
2017-11-29T21:25:36.849Z,97924.97
2017-11-29T21:28:05.102Z,97920.70
2017-11-29T21:30:33.396Z,97925.20
2017-11-29T21:33:01.667Z,97923.09
2017-11-29T21:35:29.941Z,97927.08
2017-11-29T21:37:58.210Z,97920.78
2017-11-29T21:40:26.529Z,97917.51
2017-11-29T21:42:54.797Z,97918.06
2017-11-29T21:45:23.087Z,97908.94
2017-11-29T21:47:51.365Z,97911.91
2017-11-29T21:50:19.682Z,97914.80
2017-11-29T21:52:48.042Z,97909.28
2017-11-29T21:55:16.322Z,97897.95
2017-11-29T21:57:44.612Z,97903.84
2017-11-29T22:00:12.904Z,97904.05
2017-11-29T22:02:41.401Z,97913.58
2017-11-29T22:05:09.718Z,97911.34
2017-11-29T22:07:38.010Z,97915.19
2017-11-29T22:10:06.269Z,97906.89
2017-11-29T22:12:34.563Z,97906.23
2017-11-29T22:15:02.853Z,97916.59
2017-11-29T22:17:31.148Z,97914.31
2017-11-29T22:19:59.458Z,97917.33
2017-11-29T22:22:29.078Z,97919.50
2017-11-29T22:24:57.372Z,97919.22
2017-11-29T22:27:25.654Z,97920.70
2017-11-29T22:29:54.259Z,97915.70
2017-11-29T22:32:22.550Z,97916.25
2017-11-29T22:34:50.829Z,97915.17
2017-11-29T22:37:19.077Z,97920.42
2017-11-29T22:39:47.365Z,97924.66
2017-11-29T22:42:15.636Z,97926.12
2017-11-29T22:44:43.945Z,97927.91
2017-11-29T22:47:12.216Z,97922.28
2017-11-29T22:49:40.534Z,97920.34
2017-11-29T22:52:08.851Z,97914.22
2017-11-29T22:54:37.145Z,97911.03
2017-11-29T22:57:05.495Z,97918.50
2017-11-29T22:59:33.794Z,97922.37
2017-11-29T23:02:02.131Z,97914.80
2017-11-29T23:04:30.413Z,97909.10
2017-11-29T23:06:58.709Z,97907.17
2017-11-29T23:12:01.648Z,97907.38
2017-11-29T23:14:29.921Z,97906.83
2017-11-29T23:16:58.212Z,97911.48
2017-11-29T23:19:26.529Z,97910.46
2017-11-29T23:21:54.799Z,97906.86
2017-11-29T23:24:23.101Z,97895.58
2017-11-29T23:26:51.369Z,97898.26
2017-11-29T23:29:19.658Z,97890.40
2017-11-29T23:31:47.958Z,97879.14
2017-11-29T23:34:16.244Z,97882.77
2017-11-29T23:36:44.525Z,97879.33
2017-11-29T23:39:12.829Z,97875.20
2017-11-29T23:41:41.105Z,97874.86
2017-11-29T23:44:09.406Z,97873.30
2017-11-29T23:46:37.673Z,97845.69
2017-11-29T23:49:05.998Z,97870.44
2017-11-29T23:51:34.266Z,97870.82
2017-11-29T23:54:02.584Z,97879.27
2017-11-29T23:56:30.845Z,97865.32
2017-11-29T23:58:59.146Z,97869.83
